sensor_id;sensor_type;location;lat;lon;timestamp;P1;durP1;ratioP1;P2;durP2;ratioP2
13481;SDS011;6813;60.352;15.746;2022-10-23T00:01:15;4.83;;;3.43;;
13481;SDS011;6813;60.352;15.746;2022-10-23T00:03:42;4.13;;;3.67;;
13481;SDS011;6813;60.352;15.746;2022-10-23T00:06:09;4.67;;;3.43;;
13481;SDS011;6813;60.352;15.746;2022-10-23T00:08:36;6.40;;;3.90;;
13481;SDS011;6813;60.352;15.746;2022-10-23T00:11:12;4.23;;;3.63;;
13481;SDS011;6813;60.352;15.746;2022-10-23T00:13:39;4.80;;;3.40;;
13481;SDS011;6813;60.352;15.746;2022-10-23T00:16:06;5.27;;;3.27;;
13481;SDS011;6813;60.352;15.746;2022-10-23T00:18:32;4.50;;;3.43;;
13481;SDS011;6813;60.352;15.746;2022-10-23T00:20:58;4.07;;;3.50;;
13481;SDS011;6813;60.352;15.746;2022-10-23T00:23:24;5.53;;;3.30;;
13481;SDS011;6813;60.352;15.746;2022-10-23T00:25:50;4.40;;;3.40;;
13481;SDS011;6813;60.352;15.746;2022-10-23T00:28:16;5.03;;;3.47;;
13481;SDS011;6813;60.352;15.746;2022-10-23T00:30:42;5.63;;;4.50;;
13481;SDS011;6813;60.352;15.746;2022-10-23T00:33:08;5.60;;;3.90;;
13481;SDS011;6813;60.352;15.746;2022-10-23T00:35:34;5.23;;;4.30;;
13481;SDS011;6813;60.352;15.746;2022-10-23T00:38:04;4.43;;;3.63;;
13481;SDS011;6813;60.352;15.746;2022-10-23T00:40:30;6.10;;;4.03;;
13481;SDS011;6813;60.352;15.746;2022-10-23T00:42:55;5.10;;;4.37;;
13481;SDS011;6813;60.352;15.746;2022-10-23T00:45:22;5.80;;;4.17;;
13481;SDS011;6813;60.352;15.746;2022-10-23T00:47:51;6.50;;;4.00;;
13481;SDS011;6813;60.352;15.746;2022-10-23T00:50:18;4.80;;;3.73;;
13481;SDS011;6813;60.352;15.746;2022-10-23T00:52:49;5.73;;;4.33;;
13481;SDS011;6813;60.352;15.746;2022-10-23T00:55:18;5.37;;;4.20;;
13481;SDS011;6813;60.352;15.746;2022-10-23T00:57:47;4.67;;;4.17;;
13481;SDS011;6813;60.352;15.746;2022-10-23T01:00:18;5.73;;;4.67;;
13481;SDS011;6813;60.352;15.746;2022-10-23T01:03:06;6.83;;;4.10;;
13481;SDS011;6813;60.352;15.746;2022-10-23T01:05:37;5.17;;;4.67;;
13481;SDS011;6813;60.352;15.746;2022-10-23T01:08:12;6.67;;;4.97;;
13481;SDS011;6813;60.352;15.746;2022-10-23T01:10:44;5.27;;;4.37;;
13481;SDS011;6813;60.352;15.746;2022-10-23T01:16:16;5.23;;;3.97;;
13481;SDS011;6813;60.352;15.746;2022-10-23T01:21:45;4.80;;;4.00;;
13481;SDS011;6813;60.352;15.746;2022-10-23T01:24:56;4.73;;;4.03;;
13481;SDS011;6813;60.352;15.746;2022-10-23T01:27:25;5.77;;;4.50;;
13481;SDS011;6813;60.352;15.746;2022-10-23T01:35:12;4.77;;;4.30;;
13481;SDS011;6813;60.352;15.746;2022-10-23T01:37:51;6.60;;;4.30;;
13481;SDS011;6813;60.352;15.746;2022-10-23T01:42:57;6.33;;;4.00;;
13481;SDS011;6813;60.352;15.746;2022-10-23T01:45:33;4.67;;;4.00;;
13481;SDS011;6813;60.352;15.746;2022-10-23T01:48:01;5.87;;;4.30;;
13481;SDS011;6813;60.352;15.746;2022-10-23T01:50:28;6.20;;;4.53;;
13481;SDS011;6813;60.352;15.746;2022-10-23T01:52:55;5.43;;;3.87;;
13481;SDS011;6813;60.352;15.746;2022-10-23T01:55:21;4.50;;;3.77;;
13481;SDS011;6813;60.352;15.746;2022-10-23T01:57:48;4.47;;;3.80;;
13481;SDS011;6813;60.352;15.746;2022-10-23T02:00:16;6.20;;;4.00;;
13481;SDS011;6813;60.352;15.746;2022-10-23T02:02:43;5.13;;;4.10;;
13481;SDS011;6813;60.352;15.746;2022-10-23T02:05:16;5.10;;;4.27;;
13481;SDS011;6813;60.352;15.746;2022-10-23T02:07:46;3.93;;;3.47;;
13481;SDS011;6813;60.352;15.746;2022-10-23T02:10:12;4.33;;;3.90;;
13481;SDS011;6813;60.352;15.746;2022-10-23T02:12:43;6.27;;;4.47;;
13481;SDS011;6813;60.352;15.746;2022-10-23T02:15:40;4.67;;;3.93;;
13481;SDS011;6813;60.352;15.746;2022-10-23T02:21:17;5.23;;;3.90;;
13481;SDS011;6813;60.352;15.746;2022-10-23T02:23:53;5.37;;;4.20;;
13481;SDS011;6813;60.352;15.746;2022-10-23T02:26:27;6.10;;;3.90;;
13481;SDS011;6813;60.352;15.746;2022-10-23T02:28:56;5.07;;;4.07;;
13481;SDS011;6813;60.352;15.746;2022-10-23T02:31:25;5.07;;;3.50;;
13481;SDS011;6813;60.352;15.746;2022-10-23T02:33:51;5.37;;;4.20;;
13481;SDS011;6813;60.352;15.746;2022-10-23T02:36:17;4.50;;;4.00;;
13481;SDS011;6813;60.352;15.746;2022-10-23T02:38:44;5.27;;;3.90;;
13481;SDS011;6813;60.352;15.746;2022-10-23T02:41:15;4.17;;;3.77;;
13481;SDS011;6813;60.352;15.746;2022-10-23T02:43:56;4.07;;;3.27;;
13481;SDS011;6813;60.352;15.746;2022-10-23T02:57:14;5.73;;;4.63;;
13481;SDS011;6813;60.352;15.746;2022-10-23T03:00:12;4.50;;;3.90;;
13481;SDS011;6813;60.352;15.746;2022-10-23T03:02:40;6.00;;;4.37;;
13481;SDS011;6813;60.352;15.746;2022-10-23T03:05:13;6.23;;;4.40;;
13481;SDS011;6813;60.352;15.746;2022-10-23T03:07:42;5.33;;;4.20;;
13481;SDS011;6813;60.352;15.746;2022-10-23T03:10:09;5.50;;;4.20;;
13481;SDS011;6813;60.352;15.746;2022-10-23T03:12:35;5.57;;;4.40;;
13481;SDS011;6813;60.352;15.746;2022-10-23T03:15:01;5.07;;;4.27;;
13481;SDS011;6813;60.352;15.746;2022-10-23T03:17:27;4.70;;;3.50;;
13481;SDS011;6813;60.352;15.746;2022-10-23T03:19:53;5.83;;;3.90;;
13481;SDS011;6813;60.352;15.746;2022-10-23T03:22:18;4.93;;;2.40;;
13481;SDS011;6813;60.352;15.746;2022-10-23T03:24:45;5.70;;;3.37;;
13481;SDS011;6813;60.352;15.746;2022-10-23T03:27:11;5.23;;;4.00;;
13481;SDS011;6813;60.352;15.746;2022-10-23T03:29:36;4.27;;;3.77;;
13481;SDS011;6813;60.352;15.746;2022-10-23T03:32:02;5.27;;;4.07;;
13481;SDS011;6813;60.352;15.746;2022-10-23T03:34:28;5.77;;;3.97;;
13481;SDS011;6813;60.352;15.746;2022-10-23T03:36:54;3.77;;;2.90;;
13481;SDS011;6813;60.352;15.746;2022-10-23T03:39:21;4.67;;;3.77;;
13481;SDS011;6813;60.352;15.746;2022-10-23T03:41:47;5.20;;;4.10;;
13481;SDS011;6813;60.352;15.746;2022-10-23T03:44:13;4.30;;;3.43;;
13481;SDS011;6813;60.352;15.746;2022-10-23T03:46:38;4.67;;;4.10;;
13481;SDS011;6813;60.352;15.746;2022-10-23T03:49:04;4.63;;;3.97;;
13481;SDS011;6813;60.352;15.746;2022-10-23T03:51:30;4.53;;;3.70;;
13481;SDS011;6813;60.352;15.746;2022-10-23T03:53:56;4.20;;;3.40;;
13481;SDS011;6813;60.352;15.746;2022-10-23T03:56:21;5.30;;;3.57;;
13481;SDS011;6813;60.352;15.746;2022-10-23T03:58:47;3.70;;;3.27;;
13481;SDS011;6813;60.352;15.746;2022-10-23T04:01:13;5.77;;;3.83;;
13481;SDS011;6813;60.352;15.746;2022-10-23T04:03:39;4.97;;;3.73;;
13481;SDS011;6813;60.352;15.746;2022-10-23T04:06:04;5.97;;;4.17;;
13481;SDS011;6813;60.352;15.746;2022-10-23T04:08:30;5.03;;;3.70;;
13481;SDS011;6813;60.352;15.746;2022-10-23T04:10:56;5.93;;;3.67;;
13481;SDS011;6813;60.352;15.746;2022-10-23T04:13:21;5.70;;;3.90;;
13481;SDS011;6813;60.352;15.746;2022-10-23T04:15:50;5.83;;;3.37;;
13481;SDS011;6813;60.352;15.746;2022-10-23T04:18:17;4.87;;;3.87;;
13481;SDS011;6813;60.352;15.746;2022-10-23T04:20:46;4.90;;;4.00;;
13481;SDS011;6813;60.352;15.746;2022-10-23T04:23:13;6.07;;;3.90;;
13481;SDS011;6813;60.352;15.746;2022-10-23T04:25:39;2.53;;;2.30;;
13481;SDS011;6813;60.352;15.746;2022-10-23T04:28:05;3.13;;;2.70;;
13481;SDS011;6813;60.352;15.746;2022-10-23T04:30:30;5.17;;;3.77;;
13481;SDS011;6813;60.352;15.746;2022-10-23T04:32:56;5.03;;;3.80;;
13481;SDS011;6813;60.352;15.746;2022-10-23T04:35:22;4.30;;;3.70;;
13481;SDS011;6813;60.352;15.746;2022-10-23T04:37:47;5.93;;;4.93;;
13481;SDS011;6813;60.352;15.746;2022-10-23T04:40:13;5.07;;;4.33;;
13481;SDS011;6813;60.352;15.746;2022-10-23T04:42:39;5.40;;;3.67;;
13481;SDS011;6813;60.352;15.746;2022-10-23T04:45:05;5.40;;;4.40;;
13481;SDS011;6813;60.352;15.746;2022-10-23T04:47:31;5.77;;;3.90;;
13481;SDS011;6813;60.352;15.746;2022-10-23T04:49:56;3.87;;;2.90;;
13481;SDS011;6813;60.352;15.746;2022-10-23T04:52:22;4.80;;;4.40;;
13481;SDS011;6813;60.352;15.746;2022-10-23T04:54:48;5.13;;;4.17;;
13481;SDS011;6813;60.352;15.746;2022-10-23T04:57:13;3.60;;;2.83;;
13481;SDS011;6813;60.352;15.746;2022-10-23T04:59:39;3.60;;;3.20;;
13481;SDS011;6813;60.352;15.746;2022-10-23T05:02:05;5.03;;;3.93;;
13481;SDS011;6813;60.352;15.746;2022-10-23T05:04:30;6.03;;;4.13;;
13481;SDS011;6813;60.352;15.746;2022-10-23T05:06:57;4.23;;;3.83;;
13481;SDS011;6813;60.352;15.746;2022-10-23T05:09:23;4.20;;;3.17;;
13481;SDS011;6813;60.352;15.746;2022-10-23T05:11:49;5.53;;;3.40;;
13481;SDS011;6813;60.352;15.746;2022-10-23T05:14:14;4.47;;;3.30;;
13481;SDS011;6813;60.352;15.746;2022-10-23T05:19:13;4.30;;;3.60;;
13481;SDS011;6813;60.352;15.746;2022-10-23T05:21:46;3.73;;;3.00;;
13481;SDS011;6813;60.352;15.746;2022-10-23T05:24:15;4.33;;;3.60;;
13481;SDS011;6813;60.352;15.746;2022-10-23T05:26:41;4.43;;;4.03;;
13481;SDS011;6813;60.352;15.746;2022-10-23T05:29:06;4.83;;;3.53;;
13481;SDS011;6813;60.352;15.746;2022-10-23T05:31:32;4.63;;;4.13;;
13481;SDS011;6813;60.352;15.746;2022-10-23T05:33:59;6.03;;;4.33;;
13481;SDS011;6813;60.352;15.746;2022-10-23T05:36:25;5.57;;;4.40;;
13481;SDS011;6813;60.352;15.746;2022-10-23T05:38:51;6.07;;;4.17;;
13481;SDS011;6813;60.352;15.746;2022-10-23T05:41:18;4.47;;;3.83;;
13481;SDS011;6813;60.352;15.746;2022-10-23T05:43:43;7.60;;;4.30;;
13481;SDS011;6813;60.352;15.746;2022-10-23T05:46:10;4.57;;;3.80;;
13481;SDS011;6813;60.352;15.746;2022-10-23T05:48:36;4.90;;;4.10;;
13481;SDS011;6813;60.352;15.746;2022-10-23T05:51:06;6.47;;;3.87;;
13481;SDS011;6813;60.352;15.746;2022-10-23T05:53:33;7.07;;;3.90;;
13481;SDS011;6813;60.352;15.746;2022-10-23T05:56:03;4.47;;;3.60;;
13481;SDS011;6813;60.352;15.746;2022-10-23T05:58:32;4.07;;;3.43;;
13481;SDS011;6813;60.352;15.746;2022-10-23T06:00:58;5.63;;;4.07;;
13481;SDS011;6813;60.352;15.746;2022-10-23T06:03:24;6.93;;;4.10;;
13481;SDS011;6813;60.352;15.746;2022-10-23T06:05:55;4.40;;;3.67;;
13481;SDS011;6813;60.352;15.746;2022-10-23T06:08:21;5.10;;;3.73;;
13481;SDS011;6813;60.352;15.746;2022-10-23T06:10:48;4.30;;;3.77;;
13481;SDS011;6813;60.352;15.746;2022-10-23T06:13:14;4.97;;;4.23;;
13481;SDS011;6813;60.352;15.746;2022-10-23T06:15:39;5.77;;;4.27;;
13481;SDS011;6813;60.352;15.746;2022-10-23T06:18:05;7.70;;;5.87;;
13481;SDS011;6813;60.352;15.746;2022-10-23T06:20:33;8.13;;;6.07;;
13481;SDS011;6813;60.352;15.746;2022-10-23T06:23:01;9.93;;;6.37;;
13481;SDS011;6813;60.352;15.746;2022-10-23T06:25:27;10.53;;;7.50;;
13481;SDS011;6813;60.352;15.746;2022-10-23T06:27:52;8.90;;;6.50;;
13481;SDS011;6813;60.352;15.746;2022-10-23T06:30:18;7.60;;;5.90;;
13481;SDS011;6813;60.352;15.746;2022-10-23T06:32:44;8.53;;;5.67;;
13481;SDS011;6813;60.352;15.746;2022-10-23T06:35:11;7.03;;;5.97;;
13481;SDS011;6813;60.352;15.746;2022-10-23T06:37:38;7.37;;;5.73;;
13481;SDS011;6813;60.352;15.746;2022-10-23T06:40:04;6.03;;;5.30;;
13481;SDS011;6813;60.352;15.746;2022-10-23T06:42:30;9.03;;;5.20;;
13481;SDS011;6813;60.352;15.746;2022-10-23T06:44:56;6.80;;;5.23;;
13481;SDS011;6813;60.352;15.746;2022-10-23T06:47:21;6.13;;;4.33;;
13481;SDS011;6813;60.352;15.746;2022-10-23T06:49:47;6.50;;;4.57;;
13481;SDS011;6813;60.352;15.746;2022-10-23T06:52:13;5.87;;;4.37;;
13481;SDS011;6813;60.352;15.746;2022-10-23T06:54:38;5.97;;;4.63;;
13481;SDS011;6813;60.352;15.746;2022-10-23T06:57:04;4.97;;;4.50;;
13481;SDS011;6813;60.352;15.746;2022-10-23T06:59:30;5.13;;;4.63;;
13481;SDS011;6813;60.352;15.746;2022-10-23T07:01:55;4.70;;;4.20;;
13481;SDS011;6813;60.352;15.746;2022-10-23T07:04:21;6.27;;;5.23;;
13481;SDS011;6813;60.352;15.746;2022-10-23T07:06:47;5.50;;;4.17;;
13481;SDS011;6813;60.352;15.746;2022-10-23T07:09:12;4.87;;;4.37;;
13481;SDS011;6813;60.352;15.746;2022-10-23T07:11:38;4.87;;;4.10;;
13481;SDS011;6813;60.352;15.746;2022-10-23T07:14:03;4.40;;;4.00;;
13481;SDS011;6813;60.352;15.746;2022-10-23T07:16:29;4.80;;;3.50;;
13481;SDS011;6813;60.352;15.746;2022-10-23T07:18:57;7.00;;;6.07;;
13481;SDS011;6813;60.352;15.746;2022-10-23T07:21:25;5.87;;;5.07;;
13481;SDS011;6813;60.352;15.746;2022-10-23T07:23:52;8.43;;;7.53;;
13481;SDS011;6813;60.352;15.746;2022-10-23T07:26:18;12.50;;;9.47;;
13481;SDS011;6813;60.352;15.746;2022-10-23T07:28:44;8.23;;;7.40;;
13481;SDS011;6813;60.352;15.746;2022-10-23T07:31:11;9.73;;;7.33;;
13481;SDS011;6813;60.352;15.746;2022-10-23T07:33:37;8.33;;;7.00;;
13481;SDS011;6813;60.352;15.746;2022-10-23T07:36:06;7.37;;;5.87;;
13481;SDS011;6813;60.352;15.746;2022-10-23T07:38:33;4.37;;;3.90;;
13481;SDS011;6813;60.352;15.746;2022-10-23T07:40:59;5.07;;;3.87;;
13481;SDS011;6813;60.352;15.746;2022-10-23T07:43:25;7.17;;;5.40;;
13481;SDS011;6813;60.352;15.746;2022-10-23T07:45:52;12.87;;;9.53;;
13481;SDS011;6813;60.352;15.746;2022-10-23T07:48:18;4.40;;;4.00;;
13481;SDS011;6813;60.352;15.746;2022-10-23T07:50:45;4.93;;;4.00;;
13481;SDS011;6813;60.352;15.746;2022-10-23T07:53:20;5.30;;;4.80;;
13481;SDS011;6813;60.352;15.746;2022-10-23T07:55:54;4.27;;;3.43;;
13481;SDS011;6813;60.352;15.746;2022-10-23T07:58:22;3.90;;;3.50;;
13481;SDS011;6813;60.352;15.746;2022-10-23T08:00:58;3.40;;;3.10;;
13481;SDS011;6813;60.352;15.746;2022-10-23T08:03:25;3.47;;;2.60;;
13481;SDS011;6813;60.352;15.746;2022-10-23T08:05:52;3.60;;;3.00;;
13481;SDS011;6813;60.352;15.746;2022-10-23T08:08:19;3.70;;;2.90;;
13481;SDS011;6813;60.352;15.746;2022-10-23T08:10:45;3.73;;;2.90;;
13481;SDS011;6813;60.352;15.746;2022-10-23T08:13:12;3.47;;;3.03;;
13481;SDS011;6813;60.352;15.746;2022-10-23T08:15:38;3.47;;;3.10;;
13481;SDS011;6813;60.352;15.746;2022-10-23T08:18:04;3.60;;;3.13;;
13481;SDS011;6813;60.352;15.746;2022-10-23T08:20:30;5.40;;;4.40;;
13481;SDS011;6813;60.352;15.746;2022-10-23T08:22:56;4.90;;;3.30;;
13481;SDS011;6813;60.352;15.746;2022-10-23T08:25:21;3.93;;;3.20;;
13481;SDS011;6813;60.352;15.746;2022-10-23T08:27:47;3.57;;;3.17;;
13481;SDS011;6813;60.352;15.746;2022-10-23T08:30:13;5.77;;;3.70;;
13481;SDS011;6813;60.352;15.746;2022-10-23T08:32:39;3.77;;;3.30;;
13481;SDS011;6813;60.352;15.746;2022-10-23T08:35:04;5.03;;;3.20;;
13481;SDS011;6813;60.352;15.746;2022-10-23T08:37:30;3.80;;;3.10;;
13481;SDS011;6813;60.352;15.746;2022-10-23T08:39:56;3.50;;;2.77;;
13481;SDS011;6813;60.352;15.746;2022-10-23T08:42:22;7.23;;;3.47;;
13481;SDS011;6813;60.352;15.746;2022-10-23T08:45:06;3.53;;;3.23;;
13481;SDS011;6813;60.352;15.746;2022-10-23T08:53:16;6.73;;;4.53;;
13481;SDS011;6813;60.352;15.746;2022-10-23T08:55:48;4.03;;;3.33;;
13481;SDS011;6813;60.352;15.746;2022-10-23T09:01:35;3.90;;;2.97;;
13481;SDS011;6813;60.352;15.746;2022-10-23T09:04:13;3.97;;;3.07;;
13481;SDS011;6813;60.352;15.746;2022-10-23T09:09:19;7.63;;;4.10;;
13481;SDS011;6813;60.352;15.746;2022-10-23T09:11:49;4.00;;;3.23;;
13481;SDS011;6813;60.352;15.746;2022-10-23T09:17:26;3.57;;;2.63;;
13481;SDS011;6813;60.352;15.746;2022-10-23T09:19:59;2.87;;;2.53;;
13481;SDS011;6813;60.352;15.746;2022-10-23T09:22:38;4.37;;;2.60;;
13481;SDS011;6813;60.352;15.746;2022-10-23T09:25:15;3.97;;;2.87;;
13481;SDS011;6813;60.352;15.746;2022-10-23T09:27:52;4.77;;;3.10;;
13481;SDS011;6813;60.352;15.746;2022-10-23T09:30:33;3.47;;;2.80;;
13481;SDS011;6813;60.352;15.746;2022-10-23T09:33:12;2.83;;;2.33;;
13481;SDS011;6813;60.352;15.746;2022-10-23T09:35:38;3.90;;;2.70;;
13481;SDS011;6813;60.352;15.746;2022-10-23T09:38:37;3.77;;;2.90;;
13481;SDS011;6813;60.352;15.746;2022-10-23T09:41:10;3.83;;;2.77;;
13481;SDS011;6813;60.352;15.746;2022-10-23T09:43:40;2.63;;;2.30;;
13481;SDS011;6813;60.352;15.746;2022-10-23T09:46:07;7.37;;;2.53;;
13481;SDS011;6813;60.352;15.746;2022-10-23T09:48:33;3.50;;;2.30;;
13481;SDS011;6813;60.352;15.746;2022-10-23T09:51:00;4.27;;;2.13;;
13481;SDS011;6813;60.352;15.746;2022-10-23T09:53:29;2.47;;;1.83;;
13481;SDS011;6813;60.352;15.746;2022-10-23T09:56:06;3.63;;;2.40;;
13481;SDS011;6813;60.352;15.746;2022-10-23T09:58:55;4.63;;;2.30;;
13481;SDS011;6813;60.352;15.746;2022-10-23T10:01:30;3.70;;;2.70;;
13481;SDS011;6813;60.352;15.746;2022-10-23T10:04:00;3.50;;;2.30;;
13481;SDS011;6813;60.352;15.746;2022-10-23T10:06:30;3.13;;;2.20;;
13481;SDS011;6813;60.352;15.746;2022-10-23T10:08:59;3.07;;;2.60;;
13481;SDS011;6813;60.352;15.746;2022-10-23T10:11:36;2.40;;;2.20;;
13481;SDS011;6813;60.352;15.746;2022-10-23T10:14:17;2.90;;;2.20;;
13481;SDS011;6813;60.352;15.746;2022-10-23T10:16:50;3.23;;;2.30;;
13481;SDS011;6813;60.352;15.746;2022-10-23T10:25:00;2.50;;;2.30;;
13481;SDS011;6813;60.352;15.746;2022-10-23T10:30:21;4.13;;;2.40;;
13481;SDS011;6813;60.352;15.746;2022-10-23T10:32:59;3.23;;;2.43;;
13481;SDS011;6813;60.352;15.746;2022-10-23T10:46:55;3.10;;;2.43;;
13481;SDS011;6813;60.352;15.746;2022-10-23T10:49:33;2.70;;;2.50;;
13481;SDS011;6813;60.352;15.746;2022-10-23T11:00:13;3.50;;;2.40;;
13481;SDS011;6813;60.352;15.746;2022-10-23T11:10:47;3.00;;;2.50;;
13481;SDS011;6813;60.352;15.746;2022-10-23T11:13:22;2.60;;;2.40;;
13481;SDS011;6813;60.352;15.746;2022-10-23T11:15:59;2.90;;;2.40;;
13481;SDS011;6813;60.352;15.746;2022-10-23T11:27:54;4.47;;;2.53;;
13481;SDS011;6813;60.352;15.746;2022-10-23T11:31:05;2.30;;;2.00;;
13481;SDS011;6813;60.352;15.746;2022-10-23T11:36:18;3.13;;;2.00;;
13481;SDS011;6813;60.352;15.746;2022-10-23T11:39:04;2.40;;;2.10;;
13481;SDS011;6813;60.352;15.746;2022-10-23T11:41:46;4.33;;;2.17;;
13481;SDS011;6813;60.352;15.746;2022-10-23T11:58:56;4.83;;;2.40;;
13481;SDS011;6813;60.352;15.746;2022-10-23T12:06:27;2.90;;;1.90;;
13481;SDS011;6813;60.352;15.746;2022-10-23T12:09:21;2.27;;;2.07;;
13481;SDS011;6813;60.352;15.746;2022-10-23T12:12:14;3.87;;;2.23;;
13481;SDS011;6813;60.352;15.746;2022-10-23T12:14:52;2.30;;;1.80;;
13481;SDS011;6813;60.352;15.746;2022-10-23T12:17:31;2.60;;;2.40;;
13481;SDS011;6813;60.352;15.746;2022-10-23T12:22:51;2.93;;;2.30;;
13481;SDS011;6813;60.352;15.746;2022-10-23T12:28:33;2.57;;;2.37;;
13481;SDS011;6813;60.352;15.746;2022-10-23T12:39:34;2.60;;;2.30;;
13481;SDS011;6813;60.352;15.746;2022-10-23T12:42:03;2.70;;;2.50;;
13481;SDS011;6813;60.352;15.746;2022-10-23T12:44:30;4.43;;;2.70;;
13481;SDS011;6813;60.352;15.746;2022-10-23T12:46:57;2.73;;;2.40;;
13481;SDS011;6813;60.352;15.746;2022-10-23T12:49:27;3.00;;;2.70;;
13481;SDS011;6813;60.352;15.746;2022-10-23T12:52:20;2.40;;;2.20;;
13481;SDS011;6813;60.352;15.746;2022-10-23T12:54:45;4.73;;;2.60;;
13481;SDS011;6813;60.352;15.746;2022-10-23T12:57:27;3.20;;;2.67;;
13481;SDS011;6813;60.352;15.746;2022-10-23T12:59:55;3.93;;;2.20;;
13481;SDS011;6813;60.352;15.746;2022-10-23T13:02:25;3.87;;;2.20;;
13481;SDS011;6813;60.352;15.746;2022-10-23T13:04:53;2.87;;;2.30;;
13481;SDS011;6813;60.352;15.746;2022-10-23T13:07:25;6.27;;;2.80;;
13481;SDS011;6813;60.352;15.746;2022-10-23T13:09:53;5.37;;;2.47;;
13481;SDS011;6813;60.352;15.746;2022-10-23T13:12:29;2.40;;;2.20;;
13481;SDS011;6813;60.352;15.746;2022-10-23T13:17:40;2.93;;;2.63;;
13481;SDS011;6813;60.352;15.746;2022-10-23T13:22:41;2.90;;;2.40;;
13481;SDS011;6813;60.352;15.746;2022-10-23T13:25:24;3.30;;;2.37;;
13481;SDS011;6813;60.352;15.746;2022-10-23T13:28:14;3.53;;;2.67;;
13481;SDS011;6813;60.352;15.746;2022-10-23T13:30:43;3.87;;;3.50;;
13481;SDS011;6813;60.352;15.746;2022-10-23T13:33:25;3.23;;;2.90;;
13481;SDS011;6813;60.352;15.746;2022-10-23T13:41:04;2.87;;;2.40;;
13481;SDS011;6813;60.352;15.746;2022-10-23T13:43:35;3.00;;;2.37;;
13481;SDS011;6813;60.352;15.746;2022-10-23T13:46:01;3.07;;;2.40;;
13481;SDS011;6813;60.352;15.746;2022-10-23T13:48:27;2.80;;;2.50;;
13481;SDS011;6813;60.352;15.746;2022-10-23T13:50:54;3.20;;;2.50;;
13481;SDS011;6813;60.352;15.746;2022-10-23T13:53:26;2.87;;;2.30;;
13481;SDS011;6813;60.352;15.746;2022-10-23T13:55:55;2.73;;;2.47;;
13481;SDS011;6813;60.352;15.746;2022-10-23T13:58:21;3.20;;;2.33;;
13481;SDS011;6813;60.352;15.746;2022-10-23T14:00:46;4.73;;;3.40;;
13481;SDS011;6813;60.352;15.746;2022-10-23T14:03:14;8.93;;;5.10;;
13481;SDS011;6813;60.352;15.746;2022-10-23T14:05:41;5.07;;;3.80;;
13481;SDS011;6813;60.352;15.746;2022-10-23T14:08:07;5.90;;;4.20;;
13481;SDS011;6813;60.352;15.746;2022-10-23T14:10:32;5.03;;;2.53;;
13481;SDS011;6813;60.352;15.746;2022-10-23T14:12:59;3.50;;;2.70;;
13481;SDS011;6813;60.352;15.746;2022-10-23T14:18:17;3.77;;;2.23;;
13481;SDS011;6813;60.352;15.746;2022-10-23T14:20:43;3.60;;;2.63;;
13481;SDS011;6813;60.352;15.746;2022-10-23T14:23:09;3.33;;;2.83;;
13481;SDS011;6813;60.352;15.746;2022-10-23T14:25:35;3.23;;;2.63;;
13481;SDS011;6813;60.352;15.746;2022-10-23T14:28:01;2.90;;;2.60;;
13481;SDS011;6813;60.352;15.746;2022-10-23T14:30:26;2.67;;;2.40;;
13481;SDS011;6813;60.352;15.746;2022-10-23T14:32:52;3.80;;;3.00;;
13481;SDS011;6813;60.352;15.746;2022-10-23T14:35:18;2.67;;;2.30;;
13481;SDS011;6813;60.352;15.746;2022-10-23T14:37:44;3.40;;;2.87;;
13481;SDS011;6813;60.352;15.746;2022-10-23T14:40:10;2.50;;;2.30;;
13481;SDS011;6813;60.352;15.746;2022-10-23T14:42:36;5.90;;;2.50;;
13481;SDS011;6813;60.352;15.746;2022-10-23T14:45:02;2.50;;;2.30;;
13481;SDS011;6813;60.352;15.746;2022-10-23T14:47:28;3.20;;;1.23;;
13481;SDS011;6813;60.352;15.746;2022-10-23T14:49:54;2.33;;;2.07;;
13481;SDS011;6813;60.352;15.746;2022-10-23T14:52:20;3.03;;;2.17;;
13481;SDS011;6813;60.352;15.746;2022-10-23T14:54:47;2.57;;;2.30;;
13481;SDS011;6813;60.352;15.746;2022-10-23T14:57:14;2.53;;;2.17;;
13481;SDS011;6813;60.352;15.746;2022-10-23T14:59:43;5.63;;;2.47;;
13481;SDS011;6813;60.352;15.746;2022-10-23T15:02:09;7.13;;;2.90;;
13481;SDS011;6813;60.352;15.746;2022-10-23T15:04:36;4.17;;;2.87;;
13481;SDS011;6813;60.352;15.746;2022-10-23T15:07:02;2.83;;;2.50;;
13481;SDS011;6813;60.352;15.746;2022-10-23T15:09:28;3.63;;;2.83;;
13481;SDS011;6813;60.352;15.746;2022-10-23T15:11:53;4.47;;;2.90;;
13481;SDS011;6813;60.352;15.746;2022-10-23T15:14:19;3.87;;;2.73;;
13481;SDS011;6813;60.352;15.746;2022-10-23T15:16:45;5.73;;;3.50;;
13481;SDS011;6813;60.352;15.746;2022-10-23T15:19:12;3.57;;;2.80;;
13481;SDS011;6813;60.352;15.746;2022-10-23T15:21:39;3.00;;;2.70;;
13481;SDS011;6813;60.352;15.746;2022-10-23T15:24:05;3.20;;;2.90;;
13481;SDS011;6813;60.352;15.746;2022-10-23T15:26:31;2.93;;;2.60;;
13481;SDS011;6813;60.352;15.746;2022-10-23T15:28:58;4.07;;;3.67;;
13481;SDS011;6813;60.352;15.746;2022-10-23T15:33:57;3.00;;;2.70;;
13481;SDS011;6813;60.352;15.746;2022-10-23T15:36:23;3.57;;;2.90;;
13481;SDS011;6813;60.352;15.746;2022-10-23T15:38:49;6.57;;;3.30;;
13481;SDS011;6813;60.352;15.746;2022-10-23T15:41:16;5.27;;;4.00;;
13481;SDS011;6813;60.352;15.746;2022-10-23T15:43:46;6.40;;;4.67;;
13481;SDS011;6813;60.352;15.746;2022-10-23T15:46:11;9.47;;;7.10;;
13481;SDS011;6813;60.352;15.746;2022-10-23T15:48:37;6.73;;;5.60;;
13481;SDS011;6813;60.352;15.746;2022-10-23T15:51:03;5.17;;;4.23;;
13481;SDS011;6813;60.352;15.746;2022-10-23T15:53:29;8.00;;;3.33;;
13481;SDS011;6813;60.352;15.746;2022-10-23T15:55:54;4.60;;;3.33;;
13481;SDS011;6813;60.352;15.746;2022-10-23T15:58:22;7.77;;;4.10;;
13481;SDS011;6813;60.352;15.746;2022-10-23T16:00:49;4.47;;;3.90;;
13481;SDS011;6813;60.352;15.746;2022-10-23T16:03:14;5.13;;;4.20;;
13481;SDS011;6813;60.352;15.746;2022-10-23T16:05:40;4.50;;;4.00;;
13481;SDS011;6813;60.352;15.746;2022-10-23T16:08:06;6.73;;;4.73;;
13481;SDS011;6813;60.352;15.746;2022-10-23T16:10:31;10.60;;;5.30;;
13481;SDS011;6813;60.352;15.746;2022-10-23T16:12:57;12.03;;;5.20;;
13481;SDS011;6813;60.352;15.746;2022-10-23T16:15:23;7.33;;;3.90;;
13481;SDS011;6813;60.352;15.746;2022-10-23T16:17:48;6.77;;;4.47;;
13481;SDS011;6813;60.352;15.746;2022-10-23T16:20:14;7.83;;;5.23;;
13481;SDS011;6813;60.352;15.746;2022-10-23T16:22:40;9.73;;;6.63;;
13481;SDS011;6813;60.352;15.746;2022-10-23T16:25:06;11.87;;;7.67;;
13481;SDS011;6813;60.352;15.746;2022-10-23T16:27:32;12.47;;;10.33;;
13481;SDS011;6813;60.352;15.746;2022-10-23T16:29:57;12.03;;;9.00;;
13481;SDS011;6813;60.352;15.746;2022-10-23T16:32:23;13.27;;;9.20;;
13481;SDS011;6813;60.352;15.746;2022-10-23T16:34:49;11.60;;;8.07;;
13481;SDS011;6813;60.352;15.746;2022-10-23T16:37:14;8.90;;;7.07;;
13481;SDS011;6813;60.352;15.746;2022-10-23T16:39:40;14.03;;;8.53;;
13481;SDS011;6813;60.352;15.746;2022-10-23T16:42:05;10.40;;;7.70;;
13481;SDS011;6813;60.352;15.746;2022-10-23T16:44:31;9.83;;;7.30;;
13481;SDS011;6813;60.352;15.746;2022-10-23T16:46:57;12.27;;;8.53;;
13481;SDS011;6813;60.352;15.746;2022-10-23T16:49:22;12.87;;;8.90;;
13481;SDS011;6813;60.352;15.746;2022-10-23T16:51:48;15.40;;;9.43;;
13481;SDS011;6813;60.352;15.746;2022-10-23T16:54:16;12.97;;;9.20;;
13481;SDS011;6813;60.352;15.746;2022-10-23T16:56:45;10.63;;;8.77;;
13481;SDS011;6813;60.352;15.746;2022-10-23T16:59:12;23.70;;;20.10;;
13481;SDS011;6813;60.352;15.746;2022-10-23T17:01:38;16.33;;;12.40;;
13481;SDS011;6813;60.352;15.746;2022-10-23T17:04:04;8.53;;;7.63;;
13481;SDS011;6813;60.352;15.746;2022-10-23T17:06:32;6.63;;;6.00;;
13481;SDS011;6813;60.352;15.746;2022-10-23T17:08:58;9.10;;;7.10;;
13481;SDS011;6813;60.352;15.746;2022-10-23T17:11:26;6.97;;;6.00;;
13481;SDS011;6813;60.352;15.746;2022-10-23T17:13:54;7.63;;;6.33;;
13481;SDS011;6813;60.352;15.746;2022-10-23T17:16:29;6.37;;;5.20;;
13481;SDS011;6813;60.352;15.746;2022-10-23T17:19:16;6.03;;;5.03;;
13481;SDS011;6813;60.352;15.746;2022-10-23T17:21:43;5.67;;;5.07;;